Detalii statie SADELLI PRODCOM [00001D03]

Toti senzorii

Date Temperatura solului [C]Precipitatii [mm]Voltaj baterie [mV]Leaf Wetness [Min]HC Air temperature [C]HC Relative humidity [%]Punctul de roua [C]
medieminmaxsumaultimatimpmedieminmaxmediemediemin
2019-02-21 00:00:00 4.7 4.5 5.1 0 6748 2.7 2.23 3.37 0 0 0
2019-02-21 01:00:00 4.2 4 4.7 0 6728 1.39 1.03 1.96 0 0 0
2019-02-21 02:00:00 3.8 3.5 4.2 0 6718 0.27 -0.15 0.86 0 0 0
2019-02-21 03:00:00 3.4 3.2 3.7 0 6708 -0.4 -0.79 -0.09 0 0 0
2019-02-21 04:00:00 3 2.9 3.2 0 6698 -1.24 -1.96 -0.9 0 0 0
2019-02-21 05:00:00 2.7 2.6 2.9 0 6678 -1.97 -2.23 -1.64 0 0 0
2019-02-21 06:00:00 2.4 2.3 2.6 0 6678 -1.78 -2.08 -1.41 0 0 0
2019-02-21 07:00:00 2.2 2.2 2.4 0 6678 -1.62 -1.88 -1.01 0 0 0
2019-02-21 08:00:00 2 2 2.2 0 6688 -0.66 -1 -0.46 0 0 0
2019-02-21 09:00:00 2 1.8 2.2 0 6834 0.06 -0.55 0.58 0 0 0
2019-02-21 10:00:00 2.2 2 2.5 0 7128 1.88 0.59 2.87 0 0 0
2019-02-21 11:00:00 3 2.6 3.5 0 7206 3.82 2.9 4.73 0 0 0
2019-02-21 12:00:00 3.9 3.6 4.6 0 7206 5.93 4.95 6.95 0 0 0
2019-02-21 13:00:00 5.1 4.7 5.6 0 7196 8.11 7.1 8.51 0 0 0
2019-02-21 14:00:00 6 5.7 6.4 0 7206 9.75 8.74 10.74 0 0 0
2019-02-21 15:00:00 6.7 6.4 7 0 7206 10.9 10.63 11.16 0 0 0
2019-02-21 16:00:00 7.1 7 7.3 0 7206 10.89 10.63 11.16 0 0 0
2019-02-21 17:00:00 7.2 7.2 7.4 0 7196 10.52 10.2 10.7 0 0 0
2019-02-21 18:00:00 6.9 6.6 7.2 0 6904 8.72 7.63 10.23 0 0 0
2019-02-21 19:00:00 6.2 5.9 6.7 0 6826 5.84 4.46 7.19 0 0 0
2019-02-21 20:00:00 5.5 5.1 5.8 0 6806 4.57 4.12 5 0 0 0
2019-02-21 21:00:00 5 4.6 5.3 0 6786 5.08 4.49 5.74 0 0 0
2019-02-21 22:00:00 4.6 4.4 4.9 0 6786 5.77 5.52 6.11 0 0 0
2019-02-21 23:00:00 4.4 4.3 4.6 0 6776 6.09 6.02 6.18 0 0 0
2019-02-22 00:00:00 4.3 4.3 4.4 0 6766 5.74 5.54 5.95 0 0 0
2019-02-22 01:00:00 4.2 4.1 4.6 0 6756 5.68 5.52 5.85 0 0 0
2019-02-22 02:00:00 4.2 4.2 4.3 0.4 6748 5.05 4.35 5.69 0 0 0
2019-02-22 03:00:00 4.2 4.1 4.5 1.8 6738 3.99 3.66 4.24 0 0 0
2019-02-22 04:00:00 4.1 4.1 4.4 1.2 6728 3.67 3.57 3.79 0 0 0
2019-02-22 05:00:00 4.1 4.1 4.2 0.2 6718 3.84 3.77 3.93 0 0 0
2019-02-22 06:00:00 4.1 4.1 4.2 0 6718 3.94 3.86 4.06 0 0 0
2019-02-22 07:00:00 4.1 4.1 4.2 0 6698 4.13 4.06 4.23 0.53 0
2019-02-22 08:00:00 4.1 4.1 4.4 0.4 6698 3.89 3.8 4.03 10.36 -26 -37.2
2019-02-22 09:00:00 4.2 4.1 4.5 0.4 6718 4.15 3.96 4.26 25.79 -13.9 -18.1
2019-02-22 10:00:00 4.4 4.3 4.7 0 6816 4.64 4.36 4.83 45.09 -6.4 -10.8
2019-02-22 11:00:00 4.8 4.6 5.1 0 6982 4.98 4.59 5.32 59.28 -2.4 -6.3
2019-02-22 12:00:00 5.3 5 5.6 0.2 6914 5.46 5.26 5.63 82.22 2.5 1.5
2019-02-22 13:00:00 5.4 5.4 5.5 0.4 6826 5.66 5.59 5.73 94.86 4.8 3.3
2019-02-22 14:00:00 5.4 5.2 5.5 0.4 6796 4.04 3.3 5.63 84.14 1.4 -1.2
2019-02-22 15:00:00 5.3 5 5.5 0 7216 2.66 2.04 3.13 63.71 -3.9 -12.6
2019-02-22 16:00:00 5.4 5.3 5.5 0.2 7196 3.86 2.94 4.39 1.58 0
2019-02-22 17:00:00 5.4 5.1 5.7 0 7216 2.94 1.75 4.06 0 0 0
2019-02-22 18:00:00 4.7 4.2 5.2 0 7060 0.48 -0.21 1.63 0 0 0
2019-02-22 19:00:00 3.7 3.3 4.2 0 6922 -0.87 -1.43 -0.38 0 0 0
2019-02-22 20:00:00 3.1 2.8 3.4 0 6844 -1.91 -2.24 -1.55 0 0 0
2019-02-22 21:00:00 2.6 2.4 2.8 0 6806 -2.67 -2.98 -2.36 0 0 0
2019-02-22 22:00:00 2.1 2 2.3 0 6776 -3.31 -3.56 -3.09 0 0 0
2019-02-22 23:00:00 1.8 1.7 2 0 6756 -3.82 -4.04 -3.65 0 0 0